sensor_id;sensor_type;location;lat;lon;timestamp;temperature;humidity
73875;HTU21D;62209;47.568;7.558;2023-07-20T00:09:52;20.92;81.37
73875;HTU21D;62209;47.568;7.558;2023-07-20T00:24:59;20.89;82.20
73875;HTU21D;62209;47.568;7.558;2023-07-20T00:40:06;20.51;83.36
73875;HTU21D;62209;47.568;7.558;2023-07-20T00:55:12;20.34;83.01
73875;HTU21D;62209;47.568;7.558;2023-07-20T01:10:19;20.03;86.13
73875;HTU21D;62209;47.568;7.558;2023-07-20T01:25:34;19.68;86.47
73875;HTU21D;62209;47.568;7.558;2023-07-20T01:40:58;19.65;86.58
73875;HTU21D;62209;47.568;7.558;2023-07-20T01:56:05;19.60;87.89
73875;HTU21D;62209;47.568;7.558;2023-07-20T02:11:10;19.48;87.76
73875;HTU21D;62209;47.568;7.558;2023-07-20T02:26:17;19.23;88.13
73875;HTU21D;62209;47.568;7.558;2023-07-20T02:41:23;18.81;89.24
73875;HTU21D;62209;47.568;7.558;2023-07-20T02:56:29;18.66;89.94
73875;HTU21D;62209;47.568;7.558;2023-07-20T03:11:35;18.54;89.91
73875;HTU21D;62209;47.568;7.558;2023-07-20T03:26:42;18.56;90.08
73875;HTU21D;62209;47.568;7.558;2023-07-20T03:41:48;18.25;90.92
73875;HTU21D;62209;47.568;7.558;2023-07-20T03:56:54;18.21;91.33
73875;HTU21D;62209;47.568;7.558;2023-07-20T04:12:00;18.00;91.68
73875;HTU21D;62209;47.568;7.558;2023-07-20T04:27:06;18.02;91.52
73875;HTU21D;62209;47.568;7.558;2023-07-20T04:42:12;18.05;92.79
73875;HTU21D;62209;47.568;7.558;2023-07-20T04:57:19;18.66;92.35
73875;HTU21D;62209;47.568;7.558;2023-07-20T05:12:28;19.61;90.42
73875;HTU21D;62209;47.568;7.558;2023-07-20T05:27:35;20.40;86.38
73875;HTU21D;62209;47.568;7.558;2023-07-20T05:42:42;20.77;83.58
73875;HTU21D;62209;47.568;7.558;2023-07-20T05:57:48;22.35;80.46
73875;HTU21D;62209;47.568;7.558;2023-07-20T06:12:55;22.86;79.20
73875;HTU21D;62209;47.568;7.558;2023-07-20T06:28:01;22.93;76.04
73875;HTU21D;62209;47.568;7.558;2023-07-20T06:43:08;23.15;76.85
73875;HTU21D;62209;47.568;7.558;2023-07-20T06:58:35;25.19;74.06
73875;HTU21D;62209;47.568;7.558;2023-07-20T07:13:41;25.62;73.33
73875;HTU21D;62209;47.568;7.558;2023-07-20T07:28:50;26.87;66.43
73875;HTU21D;62209;47.568;7.558;2023-07-20T07:43:56;27.66;64.45
73875;HTU21D;62209;47.568;7.558;2023-07-20T07:59:03;26.51;66.00
73875;HTU21D;62209;47.568;7.558;2023-07-20T08:14:09;27.36;61.28
73875;HTU21D;62209;47.568;7.558;2023-07-20T08:29:15;26.73;63.15
73875;HTU21D;62209;47.568;7.558;2023-07-20T08:44:22;28.73;60.73
73875;HTU21D;62209;47.568;7.558;2023-07-20T08:59:29;29.05;57.91
73875;HTU21D;62209;47.568;7.558;2023-07-20T09:14:36;27.84;59.55
73875;HTU21D;62209;47.568;7.558;2023-07-20T09:29:49;29.05;57.51
73875;HTU21D;62209;47.568;7.558;2023-07-20T09:44:57;29.28;58.02
73875;HTU21D;62209;47.568;7.558;2023-07-20T10:00:04;29.71;57.64
73875;HTU21D;62209;47.568;7.558;2023-07-20T10:15:30;30.45;56.90
73875;HTU21D;62209;47.568;7.558;2023-07-20T10:30:41;27.72;59.44
73875;HTU21D;62209;47.568;7.558;2023-07-20T10:45:51;26.24;62.28
73875;HTU21D;62209;47.568;7.558;2023-07-20T11:00:59;28.90;57.25
73875;HTU21D;62209;47.568;7.558;2023-07-20T11:16:07;30.24;56.83
73875;HTU21D;62209;47.568;7.558;2023-07-20T11:31:15;29.30;58.08
73875;HTU21D;62209;47.568;7.558;2023-07-20T11:46:21;30.72;55.73
73875;HTU21D;62209;47.568;7.558;2023-07-20T12:01:29;30.32;56.03
73875;HTU21D;62209;47.568;7.558;2023-07-20T12:16:37;28.29;58.83
73875;HTU21D;62209;47.568;7.558;2023-07-20T12:31:44;28.69;59.17
73875;HTU21D;62209;47.568;7.558;2023-07-20T12:46:50;28.60;58.07
73875;HTU21D;62209;47.568;7.558;2023-07-20T13:01:58;30.20;57.80
73875;HTU21D;62209;47.568;7.558;2023-07-20T13:17:04;30.36;54.88
73875;HTU21D;62209;47.568;7.558;2023-07-20T13:32:12;29.44;58.31
73875;HTU21D;62209;47.568;7.558;2023-07-20T13:47:19;30.69;53.63
73875;HTU21D;62209;47.568;7.558;2023-07-20T14:02:26;31.01;52.86
73875;HTU21D;62209;47.568;7.558;2023-07-20T14:17:52;29.80;53.91
73875;HTU21D;62209;47.568;7.558;2023-07-20T14:32:58;31.49;51.44
73875;HTU21D;62209;47.568;7.558;2023-07-20T14:48:05;29.08;54.87
73875;HTU21D;62209;47.568;7.558;2023-07-20T15:03:11;30.08;51.44
73875;HTU21D;62209;47.568;7.558;2023-07-20T15:18:18;30.06;50.04
73875;HTU21D;62209;47.568;7.558;2023-07-20T15:33:44;29.73;51.37
73875;HTU21D;62209;47.568;7.558;2023-07-20T15:48:50;29.29;49.69
73875;HTU21D;62209;47.568;7.558;2023-07-20T16:03:57;29.78;51.38
73875;HTU21D;62209;47.568;7.558;2023-07-20T16:19:04;28.21;52.12
73875;HTU21D;62209;47.568;7.558;2023-07-20T16:34:10;27.87;53.97
73875;HTU21D;62209;47.568;7.558;2023-07-20T16:49:16;27.43;52.91
73875;HTU21D;62209;47.568;7.558;2023-07-20T17:04:23;27.44;53.72
73875;HTU21D;62209;47.568;7.558;2023-07-20T17:19:29;27.35;55.04
73875;HTU21D;62209;47.568;7.558;2023-07-20T17:34:37;26.62;55.29
73875;HTU21D;62209;47.568;7.558;2023-07-20T17:49:43;26.23;57.29
73875;HTU21D;62209;47.568;7.558;2023-07-20T18:04:50;26.32;62.74
73875;HTU21D;62209;47.568;7.558;2023-07-20T18:19:56;25.56;60.55
73875;HTU21D;62209;47.568;7.558;2023-07-20T18:35:06;24.84;60.95
73875;HTU21D;62209;47.568;7.558;2023-07-20T18:50:12;24.48;63.53
73875;HTU21D;62209;47.568;7.558;2023-07-20T19:05:19;24.18;66.27
73875;HTU21D;62209;47.568;7.558;2023-07-20T19:20:25;24.14;69.36
73875;HTU21D;62209;47.568;7.558;2023-07-20T19:35:31;24.09;70.52
73875;HTU21D;62209;47.568;7.558;2023-07-20T19:50:39;23.01;71.71
73875;HTU21D;62209;47.568;7.558;2023-07-20T20:05:52;22.54;73.09
73875;HTU21D;62209;47.568;7.558;2023-07-20T20:20:58;21.73;73.48
73875;HTU21D;62209;47.568;7.558;2023-07-20T20:36:05;20.99;74.83
73875;HTU21D;62209;47.568;7.558;2023-07-20T20:51:11;20.56;77.37
73875;HTU21D;62209;47.568;7.558;2023-07-20T21:06:18;20.31;77.96
73875;HTU21D;62209;47.568;7.558;2023-07-20T21:21:24;20.20;79.43
73875;HTU21D;62209;47.568;7.558;2023-07-20T21:36:30;20.02;79.88
73875;HTU21D;62209;47.568;7.558;2023-07-20T21:51:37;19.83;79.54
73875;HTU21D;62209;47.568;7.558;2023-07-20T22:06:43;19.26;81.83
73875;HTU21D;62209;47.568;7.558;2023-07-20T22:21:52;19.20;82.54
73875;HTU21D;62209;47.568;7.558;2023-07-20T22:36:59;19.25;82.47
73875;HTU21D;62209;47.568;7.558;2023-07-20T22:52:06;19.15;82.13
73875;HTU21D;62209;47.568;7.558;2023-07-20T23:07:14;19.02;84.76
73875;HTU21D;62209;47.568;7.558;2023-07-20T23:22:20;18.76;84.28
73875;HTU21D;62209;47.568;7.558;2023-07-20T23:37:27;18.44;85.32
73875;HTU21D;62209;47.568;7.558;2023-07-20T23:52:33;18.41;86.66
